createdAt,value
2019-03-08T00:01:23.857Z,8.49
2019-03-08T00:03:50.926Z,8.47
2019-03-08T00:06:17.976Z,8.50
2019-03-08T00:08:45.272Z,8.47
2019-03-08T00:11:12.312Z,8.42
2019-03-08T00:13:39.434Z,8.36
2019-03-08T00:16:06.519Z,8.29
2019-03-08T00:18:33.585Z,8.26
2019-03-08T00:21:00.745Z,8.30
2019-03-08T00:23:27.879Z,8.28
2019-03-08T00:25:55.042Z,8.21
2019-03-08T00:28:22.094Z,8.11
2019-03-08T00:30:49.222Z,8.12
2019-03-08T00:33:34.684Z,8.07
2019-03-08T00:36:01.849Z,8.01
2019-03-08T00:38:29.106Z,8.02
2019-03-08T00:40:56.150Z,7.92
2019-03-08T00:43:23.352Z,7.84
2019-03-08T00:45:50.626Z,7.84
2019-03-08T00:48:17.686Z,7.80
2019-03-08T00:50:44.794Z,7.79
2019-03-08T00:53:11.904Z,7.76
2019-03-08T00:55:39.185Z,7.69
2019-03-08T00:58:06.249Z,7.73
2019-03-08T01:00:33.376Z,7.67
2019-03-08T01:03:00.635Z,7.67
2019-03-08T01:05:27.903Z,7.64
2019-03-08T01:07:55.106Z,7.67
2019-03-08T01:10:23.091Z,7.64
2019-03-08T01:12:50.364Z,7.62
2019-03-08T01:15:17.746Z,7.59
2019-03-08T01:17:44.819Z,7.54
2019-03-08T01:20:13.225Z,7.53
2019-03-08T01:22:40.346Z,7.50
2019-03-08T01:25:07.644Z,7.50
2019-03-08T01:27:34.894Z,7.54
2019-03-08T01:30:02.039Z,7.55
2019-03-08T01:32:29.118Z,7.54
2019-03-08T01:35:38.497Z,7.48
2019-03-08T01:38:05.582Z,7.47
2019-03-08T01:40:32.617Z,7.43
2019-03-08T01:42:59.670Z,7.43
2019-03-08T01:45:26.961Z,7.44
2019-03-08T01:47:54.000Z,7.46
2019-03-08T01:50:21.185Z,7.43
2019-03-08T01:52:48.294Z,7.43
2019-03-08T01:59:03.564Z,7.32
2019-03-08T02:01:30.851Z,7.21
2019-03-08T02:03:59.105Z,7.16
2019-03-08T02:06:26.403Z,7.11
2019-03-08T02:08:53.595Z,7.04
2019-03-08T02:11:27.114Z,7.04
2019-03-08T02:13:54.168Z,7.03
2019-03-08T02:16:21.252Z,6.97
2019-03-08T02:18:50.839Z,7.02
2019-03-08T02:21:18.095Z,7.08
2019-03-08T02:23:45.183Z,7.06
2019-03-08T02:26:12.232Z,7.10
2019-03-08T02:28:39.280Z,7.08
2019-03-08T02:31:06.403Z,7.04
2019-03-08T02:33:33.449Z,7.06
2019-03-08T02:36:00.505Z,7.04
2019-03-08T02:38:27.697Z,7.00
2019-03-08T02:40:54.751Z,7.01
2019-03-08T02:43:21.829Z,6.95
2019-03-08T02:45:48.941Z,6.90
2019-03-08T02:48:15.982Z,6.86
2019-03-08T02:50:43.039Z,6.85
2019-03-08T02:53:10.357Z,6.79
2019-03-08T02:55:37.409Z,6.77
2019-03-08T02:58:04.448Z,6.73
2019-03-08T03:00:36.217Z,6.71
2019-03-08T03:03:03.270Z,6.68
2019-03-08T03:06:07.163Z,6.68
2019-03-08T03:08:41.589Z,6.66
2019-03-08T03:11:08.632Z,6.64
2019-03-08T03:13:35.763Z,6.62
2019-03-08T03:16:03.301Z,6.61
2019-03-08T03:18:30.358Z,6.58
2019-03-08T03:20:57.455Z,6.60
2019-03-08T03:23:24.513Z,6.56
2019-03-08T03:25:51.559Z,6.56
2019-03-08T03:28:18.647Z,6.58
2019-03-08T03:30:45.777Z,6.58
2019-03-08T03:33:13.034Z,6.58
2019-03-08T03:35:40.100Z,6.58
2019-03-08T03:38:07.149Z,6.57
2019-03-08T03:40:34.194Z,6.58
2019-03-08T03:43:01.300Z,6.58
2019-03-08T03:45:28.358Z,6.59
2019-03-08T03:48:50.969Z,6.56
2019-03-08T03:51:18.039Z,6.60
2019-03-08T03:53:45.333Z,6.58
2019-03-08T03:56:12.446Z,6.56
2019-03-08T03:58:39.491Z,6.56
2019-03-08T04:01:26.258Z,6.58
2019-03-08T04:03:53.316Z,6.59
2019-03-08T04:06:20.673Z,6.59
2019-03-08T04:08:47.750Z,6.58
2019-03-08T04:11:14.797Z,6.58
2019-03-08T04:13:42.994Z,6.58
2019-03-08T04:16:10.098Z,6.58
2019-03-08T04:18:37.128Z,6.58
2019-03-08T04:21:04.174Z,6.65
2019-03-08T04:23:32.319Z,6.63
2019-03-08T04:25:59.593Z,6.61
2019-03-08T04:28:26.646Z,6.59
2019-03-08T04:30:53.723Z,6.57
2019-03-08T04:33:20.774Z,6.53
2019-03-08T04:36:30.344Z,6.51
2019-03-08T04:38:57.436Z,6.52
2019-03-08T04:41:24.486Z,6.55
2019-03-08T04:43:51.593Z,6.57
2019-03-08T04:46:18.951Z,6.60
2019-03-08T04:48:45.989Z,6.55
2019-03-08T04:51:13.066Z,6.54
2019-03-08T04:53:40.180Z,6.53
2019-03-08T04:56:07.562Z,6.50
2019-03-08T04:58:34.696Z,6.46
2019-03-08T05:01:01.742Z,6.42
2019-03-08T05:03:29.178Z,6.40
2019-03-08T05:05:56.320Z,6.34
2019-03-08T05:08:23.377Z,6.31
2019-03-08T05:10:51.529Z,6.30
2019-03-08T05:13:18.605Z,6.30
2019-03-08T05:15:45.653Z,6.31
2019-03-08T05:18:12.701Z,6.31
2019-03-08T05:20:40.077Z,6.31
2019-03-08T05:23:07.142Z,6.25
2019-03-08T05:25:34.193Z,6.20
2019-03-08T05:28:01.315Z,6.22
2019-03-08T05:30:28.367Z,6.23
2019-03-08T05:32:55.416Z,6.25
2019-03-08T05:35:22.507Z,6.28
2019-03-08T05:37:49.952Z,6.27
2019-03-08T05:40:17.007Z,6.24
2019-03-08T05:42:44.109Z,6.26
2019-03-08T05:45:12.587Z,6.23
2019-03-08T05:47:39.647Z,6.19
2019-03-08T05:50:07.055Z,6.21
2019-03-08T05:52:34.216Z,6.24
2019-03-08T05:55:01.720Z,6.24
2019-03-08T05:57:28.850Z,6.28
2019-03-08T05:59:55.894Z,6.32
2019-03-08T06:02:22.933Z,6.33
2019-03-08T06:04:50.017Z,6.36
2019-03-08T06:08:13.739Z,6.37
2019-03-08T06:10:40.849Z,6.38
2019-03-08T06:13:07.934Z,6.35
2019-03-08T06:15:35.213Z,6.38
2019-03-08T06:18:02.694Z,6.41
2019-03-08T06:20:29.742Z,6.40
2019-03-08T06:22:56.801Z,6.45
2019-03-08T06:25:23.968Z,6.47
2019-03-08T06:27:52.778Z,6.43
2019-03-08T06:30:19.918Z,6.43
2019-03-08T06:32:47.206Z,6.46
2019-03-08T06:35:14.262Z,6.48
2019-03-08T06:37:41.507Z,6.49
2019-03-08T06:40:08.634Z,6.53
2019-03-08T06:42:35.681Z,6.52
2019-03-08T06:45:03.370Z,6.51
2019-03-08T06:47:51.609Z,6.53
2019-03-08T06:50:56.568Z,6.53
2019-03-08T06:53:23.657Z,6.60
2019-03-08T06:55:50.762Z,6.58
2019-03-08T06:58:29.317Z,6.54
2019-03-08T07:01:21.956Z,6.54
2019-03-08T07:03:49.397Z,6.53
2019-03-08T07:06:16.434Z,6.53
2019-03-08T07:08:43.532Z,6.58
2019-03-08T07:11:11.610Z,6.65
2019-03-08T07:13:38.680Z,6.67
2019-03-08T07:16:12.767Z,6.69
2019-03-08T07:18:52.057Z,6.69
2019-03-08T07:21:41.554Z,6.70
2019-03-08T07:24:21.403Z,6.71
2019-03-08T07:27:17.130Z,6.71
2019-03-08T07:30:06.570Z,6.73
2019-03-08T07:33:05.107Z,6.77
2019-03-08T07:35:57.767Z,6.79
2019-03-08T07:38:42.990Z,6.83
2019-03-08T07:41:30.796Z,6.83
2019-03-08T07:44:14.624Z,6.79
2019-03-08T07:46:57.410Z,6.73
2019-03-08T07:49:53.835Z,6.78
2019-03-08T07:52:49.248Z,6.80
2019-03-08T07:55:36.309Z,6.81
2019-03-08T07:58:25.214Z,6.84
2019-03-08T08:01:11.844Z,6.89
2019-03-08T08:04:04.685Z,6.91
2019-03-08T08:06:41.405Z,6.92
2019-03-08T08:09:31.662Z,6.98
2019-03-08T08:12:16.898Z,7.04
2019-03-08T08:14:58.484Z,7.10
2019-03-08T08:17:35.051Z,7.27
2019-03-08T08:20:16.614Z,7.45
2019-03-08T08:23:08.251Z,7.58
2019-03-08T08:25:57.734Z,7.74
2019-03-08T08:28:30.784Z,7.80
2019-03-08T08:31:17.761Z,7.86
2019-03-08T08:34:22.981Z,7.90
2019-03-08T08:37:08.409Z,7.97
2019-03-08T08:39:58.120Z,7.97
2019-03-08T08:42:49.533Z,7.99
2019-03-08T08:45:27.049Z,8.00
2019-03-08T08:48:08.962Z,8.04
2019-03-08T08:50:49.278Z,7.98
2019-03-08T08:53:29.528Z,7.92
2019-03-08T08:56:14.790Z,7.97
2019-03-08T08:58:54.857Z,8.00
2019-03-08T09:02:10.118Z,8.00
2019-03-08T09:05:12.100Z,7.99
2019-03-08T09:07:57.897Z,8.00
2019-03-08T09:10:59.699Z,8.04
2019-03-08T09:13:32.649Z,8.15
2019-03-08T09:16:17.987Z,8.18
2019-03-08T09:19:19.460Z,8.25
2019-03-08T09:21:55.787Z,8.26
2019-03-08T09:24:46.620Z,8.23
2019-03-08T09:27:36.038Z,8.34
2019-03-08T09:30:15.786Z,8.60
2019-03-08T09:33:01.032Z,8.65
2019-03-08T09:35:53.888Z,8.61
2019-03-08T09:38:43.328Z,8.47
2019-03-08T09:41:37.839Z,8.42
2019-03-08T09:44:24.493Z,8.36
2019-03-08T09:47:03.684Z,8.41
2019-03-08T09:49:51.844Z,8.49
2019-03-08T09:52:44.730Z,8.50
2019-03-08T09:55:31.268Z,8.48
2019-03-08T09:58:06.553Z,8.58
2019-03-08T10:01:05.362Z,8.72
2019-03-08T10:03:54.581Z,8.77
2019-03-08T10:06:41.251Z,8.78
2019-03-08T10:09:28.108Z,8.63
2019-03-08T10:12:20.914Z,8.60
2019-03-08T10:15:10.321Z,8.63
2019-03-08T10:17:55.981Z,8.80
2019-03-08T10:20:58.280Z,8.87
2019-03-08T10:23:32.371Z,9.04
2019-03-08T10:26:30.850Z,9.13
2019-03-08T10:29:26.000Z,9.13
2019-03-08T10:32:12.655Z,9.25
2019-03-08T10:34:51.534Z,9.39
2019-03-08T10:37:31.923Z,9.38
2019-03-08T10:40:24.845Z,9.45
2019-03-08T10:42:58.945Z,9.57
2019-03-08T10:45:45.725Z,9.54
2019-03-08T10:48:44.568Z,9.70
2019-03-08T10:51:29.668Z,9.82
2019-03-08T10:54:25.172Z,9.84
2019-03-08T10:57:05.760Z,9.67
2019-03-08T10:59:55.485Z,9.59
2019-03-08T11:03:00.519Z,9.73
2019-03-08T11:05:53.208Z,9.90
2019-03-08T11:08:49.241Z,10.14
2019-03-08T11:11:43.408Z,10.13
2019-03-08T11:14:29.044Z,9.94
2019-03-08T11:17:15.755Z,9.74
2019-03-08T11:20:05.648Z,9.48
2019-03-08T11:22:45.864Z,9.36
2019-03-08T11:25:35.002Z,9.28
2019-03-08T11:28:20.936Z,9.10
2019-03-08T11:31:02.497Z,8.94
2019-03-08T11:33:55.488Z,9.04
2019-03-08T11:36:45.498Z,9.39
2019-03-08T11:39:50.317Z,9.80
2019-03-08T11:42:30.174Z,10.29
2019-03-08T11:45:29.256Z,10.53
2019-03-08T11:48:34.143Z,10.51
2019-03-08T11:51:19.418Z,10.48
2019-03-08T11:54:06.083Z,10.41
2019-03-08T11:56:56.131Z,10.32
2019-03-08T11:59:44.337Z,10.37
2019-03-08T12:02:37.698Z,10.39
2019-03-08T12:05:19.306Z,10.34
2019-03-08T12:08:04.973Z,10.29
2019-03-08T12:11:03.909Z,10.34
2019-03-08T12:13:44.730Z,10.37
2019-03-08T12:16:34.582Z,10.31
2019-03-08T12:19:15.844Z,10.36
2019-03-08T12:21:55.409Z,10.35
2019-03-08T12:24:52.010Z,10.32
2019-03-08T12:27:48.402Z,10.38
2019-03-08T12:30:34.878Z,10.82
2019-03-08T12:33:30.601Z,11.08
2019-03-08T12:36:13.180Z,11.01
2019-03-08T12:38:55.035Z,10.92
2019-03-08T12:41:29.892Z,10.97
2019-03-08T12:44:16.656Z,11.18
2019-03-08T12:47:08.511Z,11.54
2019-03-08T12:49:48.948Z,11.59
2019-03-08T12:52:23.211Z,11.63
2019-03-08T12:55:08.844Z,11.53
2019-03-08T12:58:02.541Z,11.37
2019-03-08T13:00:36.933Z,11.17
2019-03-08T13:03:23.489Z,11.02
2019-03-08T13:06:19.664Z,11.03
2019-03-08T13:09:11.118Z,10.97
2019-03-08T13:11:38.204Z,10.98
2019-03-08T13:14:05.367Z,10.92
2019-03-08T13:16:32.460Z,10.86
2019-03-08T13:18:59.542Z,11.03
2019-03-08T13:21:26.610Z,11.62
2019-03-08T13:23:53.819Z,11.83
2019-03-08T13:26:20.922Z,11.70
2019-03-08T13:28:48.016Z,11.55
2019-03-08T13:31:15.395Z,11.45
2019-03-08T13:33:42.607Z,11.29
2019-03-08T13:36:40.811Z,11.14
2019-03-08T13:39:07.866Z,10.85
2019-03-08T13:41:34.955Z,10.65
2019-03-08T13:44:02.167Z,10.44
2019-03-08T13:46:29.359Z,10.51
2019-03-08T13:48:56.422Z,11.22
2019-03-08T13:51:23.574Z,11.48
2019-03-08T13:57:07.373Z,11.40
2019-03-08T13:59:34.743Z,11.69
2019-03-08T14:02:01.858Z,12.16
2019-03-08T14:04:28.980Z,11.99
2019-03-08T14:06:56.236Z,11.49
2019-03-08T14:09:23.341Z,11.21
2019-03-08T14:11:50.780Z,11.09
2019-03-08T14:14:17.871Z,10.95
2019-03-08T14:16:45.312Z,10.88
2019-03-08T14:19:12.490Z,10.79
2019-03-08T14:21:39.609Z,10.79
2019-03-08T14:24:06.801Z,10.70
2019-03-08T14:26:33.953Z,10.61
2019-03-08T14:29:03.264Z,10.61
2019-03-08T14:31:38.827Z,10.40
2019-03-08T14:34:05.891Z,10.25
2019-03-08T14:36:32.961Z,10.19
2019-03-08T14:39:04.213Z,10.18
2019-03-08T14:41:58.958Z,10.28
2019-03-08T14:44:45.636Z,10.33
2019-03-08T14:47:17.528Z,10.31
2019-03-08T14:49:44.696Z,10.26
2019-03-08T14:52:11.852Z,10.19
2019-03-08T14:54:42.439Z,10.15
2019-03-08T14:57:09.281Z,10.08
2019-03-08T14:59:37.055Z,10.02
2019-03-08T15:02:04.198Z,9.95
2019-03-08T15:04:33.269Z,9.90
2019-03-08T15:07:01.286Z,9.80
2019-03-08T15:09:30.722Z,9.75
2019-03-08T15:11:59.563Z,9.74
2019-03-08T15:14:30.137Z,9.74
2019-03-08T15:16:56.115Z,9.68
2019-03-08T15:19:23.479Z,9.60
2019-03-08T15:21:51.679Z,9.60
2019-03-08T15:24:18.857Z,9.58
2019-03-08T15:26:51.994Z,9.54
2019-03-08T15:29:19.105Z,9.52
2019-03-08T15:31:46.192Z,9.46
2019-03-08T15:34:14.661Z,9.44
2019-03-08T15:36:42.387Z,9.44
2019-03-08T15:39:09.456Z,9.43
2019-03-08T15:42:02.455Z,9.39
2019-03-08T15:44:32.667Z,9.37
2019-03-08T15:47:00.517Z,9.34
2019-03-08T15:49:30.550Z,9.30
2019-03-08T15:51:59.904Z,9.26
2019-03-08T15:54:27.066Z,9.29
2019-03-08T15:56:54.203Z,9.27
2019-03-08T15:59:21.368Z,9.25
2019-03-08T16:01:48.424Z,9.29
2019-03-08T16:04:15.634Z,9.25
2019-03-08T16:06:43.968Z,9.22
2019-03-08T16:09:11.700Z,9.20
2019-03-08T16:11:38.832Z,9.17
2019-03-08T16:14:08.961Z,9.13
2019-03-08T16:16:34.955Z,9.14
2019-03-08T16:19:02.077Z,9.14
2019-03-08T16:21:30.963Z,9.15
2019-03-08T16:23:58.040Z,9.19
2019-03-08T16:26:26.382Z,9.17
2019-03-08T16:28:53.665Z,9.16
2019-03-08T16:31:30.241Z,9.13
2019-03-08T16:33:58.184Z,9.07
2019-03-08T16:36:36.353Z,9.02
2019-03-08T16:39:42.469Z,8.97
2019-03-08T16:42:21.533Z,8.91
2019-03-08T16:45:06.988Z,8.88
2019-03-08T16:47:53.700Z,8.80
2019-03-08T16:50:37.157Z,8.76
2019-03-08T16:53:26.875Z,8.76
2019-03-08T16:56:14.961Z,8.71
2019-03-08T16:59:00.236Z,8.66
2019-03-08T17:01:46.141Z,8.62
2019-03-08T17:04:35.718Z,8.59
2019-03-08T17:07:22.722Z,8.54
2019-03-08T17:10:07.632Z,8.55
2019-03-08T17:12:42.413Z,8.55
2019-03-08T17:15:15.986Z,8.55
2019-03-08T17:18:08.703Z,8.55
2019-03-08T17:21:01.623Z,8.54
2019-03-08T17:23:37.477Z,8.53
2019-03-08T17:26:24.159Z,8.51
2019-03-08T17:29:10.800Z,8.53
2019-03-08T17:32:01.757Z,8.55
2019-03-08T17:34:54.499Z,8.57
2019-03-08T17:37:43.855Z,8.61
2019-03-08T17:40:30.006Z,8.71
2019-03-08T17:43:25.688Z,8.78
2019-03-08T17:46:18.062Z,8.89
2019-03-08T17:49:13.733Z,9.03
2019-03-08T17:52:05.125Z,9.06
2019-03-08T17:54:58.189Z,9.10
2019-03-08T17:57:56.888Z,9.09
2019-03-08T18:00:46.388Z,9.09
2019-03-08T18:03:45.011Z,9.02
2019-03-08T18:06:34.426Z,8.99
2019-03-08T18:09:20.130Z,8.92
2019-03-08T18:12:06.772Z,8.89
2019-03-08T18:14:51.994Z,8.93
2019-03-08T18:17:44.860Z,8.90
2019-03-08T18:20:34.269Z,8.89
2019-03-08T18:23:26.713Z,8.85
2019-03-08T18:26:16.170Z,8.86
2019-03-08T18:29:11.650Z,8.81
2019-03-08T18:31:58.286Z,8.73
2019-03-08T18:34:51.252Z,8.68
2019-03-08T18:37:36.785Z,8.65
2019-03-08T18:40:28.029Z,8.61
2019-03-08T18:43:17.993Z,8.60
2019-03-08T18:46:19.668Z,8.63
2019-03-08T18:49:15.693Z,8.64
2019-03-08T18:52:08.172Z,8.65
2019-03-08T18:54:49.015Z,8.63
2019-03-08T18:57:47.772Z,8.68
2019-03-08T19:00:40.644Z,8.71
2019-03-08T19:03:27.418Z,8.67
2019-03-08T19:06:02.615Z,8.61
2019-03-08T19:08:41.064Z,8.57
2019-03-08T19:11:17.187Z,8.53
2019-03-08T19:14:03.954Z,8.52
2019-03-08T19:16:53.294Z,8.51
2019-03-08T19:19:40.853Z,8.47
2019-03-08T19:22:25.937Z,8.45
2019-03-08T19:25:08.422Z,8.44
2019-03-08T19:27:55.075Z,8.47
2019-03-08T19:30:32.646Z,8.49
2019-03-08T19:33:22.126Z,8.51
2019-03-08T19:35:57.384Z,8.49
2019-03-08T19:38:36.511Z,8.51
2019-03-08T19:41:16.453Z,8.51
2019-03-08T19:44:17.950Z,8.52
2019-03-08T19:47:13.958Z,8.53
2019-03-08T19:50:06.912Z,8.49
2019-03-08T19:52:57.604Z,8.49
2019-03-08T19:55:47.343Z,8.49
2019-03-08T19:58:36.851Z,8.46
2019-03-08T20:01:22.064Z,8.45
2019-03-08T20:04:11.541Z,8.45
2019-03-08T20:06:58.177Z,8.41
2019-03-08T20:09:43.415Z,8.39
2019-03-08T20:12:31.930Z,8.39
2019-03-08T20:15:17.515Z,8.42
2019-03-08T20:17:53.421Z,8.50
2019-03-08T20:20:33.320Z,8.47
2019-03-08T20:23:31.753Z,8.49
2019-03-08T20:26:18.417Z,8.52
2019-03-08T20:29:17.205Z,8.51
2019-03-08T20:32:02.500Z,8.46
2019-03-08T20:34:46.328Z,8.45
2019-03-08T20:37:45.129Z,8.44
2019-03-08T20:40:30.867Z,8.41
2019-03-08T20:43:02.484Z,8.37
2019-03-08T20:45:46.416Z,8.36
2019-03-08T20:48:13.540Z,8.35
2019-03-08T20:50:40.609Z,8.31
2019-03-08T20:53:07.683Z,8.30
2019-03-08T20:55:34.805Z,8.31
2019-03-08T20:58:01.899Z,8.29
2019-03-08T21:00:29.031Z,8.27
2019-03-08T21:02:56.229Z,8.28
2019-03-08T21:05:23.480Z,8.30
2019-03-08T21:07:50.654Z,8.34
2019-03-08T21:10:17.804Z,8.36
2019-03-08T21:12:45.139Z,8.29
2019-03-08T21:15:12.692Z,8.29
2019-03-08T21:17:39.774Z,8.29
2019-03-08T21:20:08.297Z,8.25
2019-03-08T21:22:35.424Z,8.22
2019-03-08T21:25:04.509Z,8.22
2019-03-08T21:27:31.770Z,8.28
2019-03-08T21:29:59.116Z,8.29
2019-03-08T21:32:26.448Z,8.33
2019-03-08T21:34:53.560Z,8.38
2019-03-08T21:37:20.630Z,8.39
2019-03-08T21:39:47.767Z,8.42
2019-03-08T21:42:15.138Z,8.44
2019-03-08T21:44:48.281Z,8.48
2019-03-08T21:47:15.413Z,8.45
2019-03-08T21:56:55.947Z,8.32
2019-03-08T21:59:23.070Z,8.24
2019-03-08T22:01:50.170Z,8.23
2019-03-08T22:04:39.666Z,8.28
2019-03-08T22:07:06.739Z,8.30
2019-03-08T22:09:53.452Z,8.29
2019-03-08T22:12:20.529Z,8.27
2019-03-08T22:14:47.813Z,8.26
2019-03-08T22:17:15.328Z,8.24
2019-03-08T22:19:42.750Z,8.25
2019-03-08T22:22:10.111Z,8.19
2019-03-08T22:24:37.398Z,8.12
2019-03-08T22:27:04.759Z,8.05
2019-03-08T22:29:31.962Z,8.00
2019-03-08T22:31:59.101Z,7.97
2019-03-08T22:34:26.540Z,7.93
2019-03-08T22:36:53.608Z,7.93
2019-03-08T22:39:20.755Z,7.95
2019-03-08T22:41:51.268Z,7.98
2019-03-08T22:44:18.368Z,7.99
2019-03-08T22:46:45.942Z,7.98
2019-03-08T22:49:13.711Z,7.96
2019-03-08T22:51:40.882Z,7.92
2019-03-08T22:54:08.308Z,7.92
2019-03-08T22:56:35.556Z,7.94
2019-03-08T22:59:02.740Z,7.92
2019-03-08T23:01:45.494Z,7.89
2019-03-08T23:04:12.558Z,7.88
2019-03-08T23:06:39.661Z,7.86
2019-03-08T23:09:09.961Z,7.87
2019-03-08T23:11:37.173Z,7.90
2019-03-08T23:14:04.552Z,7.92
2019-03-08T23:16:31.638Z,7.94
2019-03-08T23:18:58.776Z,7.97
2019-03-08T23:21:26.148Z,8.00
2019-03-08T23:23:53.326Z,8.03
2019-03-08T23:26:20.466Z,8.01
2019-03-08T23:28:55.266Z,8.01
2019-03-08T23:31:44.951Z,8.03
2019-03-08T23:34:12.163Z,8.01
2019-03-08T23:36:39.319Z,8.00
2019-03-08T23:39:07.634Z,7.95
2019-03-08T23:41:34.709Z,7.96
2019-03-08T23:44:01.866Z,7.97
2019-03-08T23:46:29.061Z,8.03
2019-03-08T23:48:56.113Z,8.12
2019-03-08T23:51:23.264Z,8.18
2019-03-08T23:53:50.649Z,8.15
2019-03-08T23:56:17.712Z,8.11
2019-03-08T23:58:45.001Z,8.09
